sensor_id;sensor_type;location;lat;lon;timestamp;pressure;altitude;pressure_sealevel;temperature;humidity
70437;BME280;57877;39.750;-104.894;2022-11-22T00:01:41;84040.79;;;3.11;28.70
70437;BME280;57877;39.750;-104.894;2022-11-22T00:04:06;84046.09;;;3.45;28.42
70437;BME280;57877;39.750;-104.894;2022-11-22T00:06:31;84046.55;;;3.43;27.51
70437;BME280;57877;39.750;-104.894;2022-11-22T00:08:56;84054.22;;;3.69;27.66
70437;BME280;57877;39.750;-104.894;2022-11-22T00:11:22;84054.84;;;3.51;27.63
70437;BME280;57877;39.750;-104.894;2022-11-22T00:13:47;84057.94;;;3.51;27.45
70437;BME280;57877;39.750;-104.894;2022-11-22T00:16:12;84061.05;;;3.28;28.41
70437;BME280;57877;39.750;-104.894;2022-11-22T00:18:37;84060.22;;;3.81;26.88
70437;BME280;57877;39.750;-104.894;2022-11-22T00:21:05;84062.30;;;3.45;27.29
70437;BME280;57877;39.750;-104.894;2022-11-22T00:23:27;84061.66;;;3.76;26.87
70437;BME280;57877;39.750;-104.894;2022-11-22T00:25:53;84065.06;;;3.24;27.64
70437;BME280;57877;39.750;-104.894;2022-11-22T00:28:19;84066.50;;;4.40;26.75
70437;BME280;57877;39.750;-104.894;2022-11-22T00:30:44;84063.79;;;3.57;27.49
70437;BME280;57877;39.750;-104.894;2022-11-22T00:33:09;84064.10;;;3.92;26.64
70437;BME280;57877;39.750;-104.894;2022-11-22T00:35:35;84062.06;;;3.71;26.72
70437;BME280;57877;39.750;-104.894;2022-11-22T00:38:01;84061.84;;;3.89;27.29
70437;BME280;57877;39.750;-104.894;2022-11-22T00:40:27;84064.37;;;3.11;27.79
70437;BME280;57877;39.750;-104.894;2022-11-22T00:42:53;84064.12;;;3.44;27.09
70437;BME280;57877;39.750;-104.894;2022-11-22T00:45:19;84065.80;;;3.54;27.46
70437;BME280;57877;39.750;-104.894;2022-11-22T00:47:45;84061.48;;;4.53;26.24
70437;BME280;57877;39.750;-104.894;2022-11-22T00:50:11;84059.53;;;4.25;26.25
70437;BME280;57877;39.750;-104.894;2022-11-22T00:52:36;84060.90;;;4.00;26.68
70437;BME280;57877;39.750;-104.894;2022-11-22T00:55:01;84066.45;;;4.18;26.25
70437;BME280;57877;39.750;-104.894;2022-11-22T00:57:26;84067.69;;;4.33;26.19
70437;BME280;57877;39.750;-104.894;2022-11-22T00:59:51;84067.25;;;4.26;26.08
70437;BME280;57877;39.750;-104.894;2022-11-22T01:02:17;84069.24;;;4.60;25.91
70437;BME280;57877;39.750;-104.894;2022-11-22T01:04:43;84066.83;;;3.94;26.15
70437;BME280;57877;39.750;-104.894;2022-11-22T01:07:09;84072.37;;;4.47;25.50
70437;BME280;57877;39.750;-104.894;2022-11-22T01:12:01;84076.71;;;4.70;25.18
70437;BME280;57877;39.750;-104.894;2022-11-22T01:14:28;84075.56;;;4.76;24.72
70437;BME280;57877;39.750;-104.894;2022-11-22T01:16:53;84076.93;;;4.85;24.70
70437;BME280;57877;39.750;-104.894;2022-11-22T01:19:19;84076.69;;;5.20;24.53
70437;BME280;57877;39.750;-104.894;2022-11-22T01:21:44;84077.93;;;5.20;24.76
70437;BME280;57877;39.750;-104.894;2022-11-22T01:24:10;84079.40;;;4.80;24.76
70437;BME280;57877;39.750;-104.894;2022-11-22T01:26:37;84084.97;;;4.51;24.54
70437;BME280;57877;39.750;-104.894;2022-11-22T01:29:03;84086.79;;;4.77;24.71
70437;BME280;57877;39.750;-104.894;2022-11-22T01:31:28;84087.16;;;4.69;24.80
70437;BME280;57877;39.750;-104.894;2022-11-22T01:33:52;84082.56;;;4.66;25.21
70437;BME280;57877;39.750;-104.894;2022-11-22T01:36:17;84080.80;;;4.65;25.10
70437;BME280;57877;39.750;-104.894;2022-11-22T01:38:43;84082.03;;;4.27;24.65
70437;BME280;57877;39.750;-104.894;2022-11-22T01:41:09;84080.74;;;4.10;24.93
70437;BME280;57877;39.750;-104.894;2022-11-22T01:43:35;84079.69;;;4.21;24.85
70437;BME280;57877;39.750;-104.894;2022-11-22T01:46:00;84082.97;;;4.57;24.79
70437;BME280;57877;39.750;-104.894;2022-11-22T01:48:33;84085.57;;;4.25;24.83
70437;BME280;57877;39.750;-104.894;2022-11-22T01:50:55;84089.35;;;4.26;24.79
70437;BME280;57877;39.750;-104.894;2022-11-22T01:53:20;84091.11;;;4.12;24.84
70437;BME280;57877;39.750;-104.894;2022-11-22T01:55:43;84092.05;;;4.02;24.91
70437;BME280;57877;39.750;-104.894;2022-11-22T01:58:10;84090.03;;;4.06;24.89
70437;BME280;57877;39.750;-104.894;2022-11-22T02:00:35;84088.43;;;4.08;24.81
70437;BME280;57877;39.750;-104.894;2022-11-22T02:03:01;84089.68;;;3.77;24.86
70437;BME280;57877;39.750;-104.894;2022-11-22T02:05:29;84092.00;;;3.52;25.01
70437;BME280;57877;39.750;-104.894;2022-11-22T02:07:52;84093.00;;;3.81;24.83
70437;BME280;57877;39.750;-104.894;2022-11-22T02:10:16;84094.26;;;3.44;25.04
70437;BME280;57877;39.750;-104.894;2022-11-22T02:12:40;84093.43;;;3.47;25.05
70437;BME280;57877;39.750;-104.894;2022-11-22T02:15:06;84091.21;;;3.32;25.43
70437;BME280;57877;39.750;-104.894;2022-11-22T02:17:31;84092.12;;;3.07;25.76
70437;BME280;57877;39.750;-104.894;2022-11-22T02:19:56;84093.01;;;3.52;25.50
70437;BME280;57877;39.750;-104.894;2022-11-22T02:22:30;84093.93;;;4.04;25.23
70437;BME280;57877;39.750;-104.894;2022-11-22T02:24:53;84092.11;;;3.68;25.18
70437;BME280;57877;39.750;-104.894;2022-11-22T02:27:13;84094.74;;;3.36;25.39
70437;BME280;57877;39.750;-104.894;2022-11-22T02:29:39;84094.38;;;3.66;25.41
70437;BME280;57877;39.750;-104.894;2022-11-22T02:32:04;84095.89;;;3.41;25.24
70437;BME280;57877;39.750;-104.894;2022-11-22T02:36:55;84103.35;;;3.12;25.91
70437;BME280;57877;39.750;-104.894;2022-11-22T02:39:24;84104.61;;;3.33;25.77
70437;BME280;57877;39.750;-104.894;2022-11-22T02:41:45;84104.23;;;3.26;25.83
70437;BME280;57877;39.750;-104.894;2022-11-22T02:44:12;84104.69;;;3.01;25.97
70437;BME280;57877;39.750;-104.894;2022-11-22T02:49:01;84107.13;;;3.11;25.60
70437;BME280;57877;39.750;-104.894;2022-11-22T02:51:26;84107.45;;;3.22;25.97
70437;BME280;57877;39.750;-104.894;2022-11-22T02:53:51;84105.55;;;3.00;26.26
70437;BME280;57877;39.750;-104.894;2022-11-22T02:56:18;84101.70;;;2.66;26.49
70437;BME280;57877;39.750;-104.894;2022-11-22T02:58:43;84106.49;;;3.39;26.31
70437;BME280;57877;39.750;-104.894;2022-11-22T03:01:07;84104.57;;;2.73;26.86
70437;BME280;57877;39.750;-104.894;2022-11-22T03:03:32;84102.36;;;2.96;26.81
70437;BME280;57877;39.750;-104.894;2022-11-22T03:05:58;84106.26;;;3.04;26.54
70437;BME280;57877;39.750;-104.894;2022-11-22T03:08:23;84104.41;;;3.16;26.42
70437;BME280;57877;39.750;-104.894;2022-11-22T03:10:48;84101.40;;;3.07;26.51
70437;BME280;57877;39.750;-104.894;2022-11-22T03:13:13;84099.98;;;3.03;26.45
70437;BME280;57877;39.750;-104.894;2022-11-22T03:15:40;84096.93;;;3.06;26.51
70437;BME280;57877;39.750;-104.894;2022-11-22T03:18:06;84098.20;;;3.01;26.68
70437;BME280;57877;39.750;-104.894;2022-11-22T03:20:33;84098.06;;;2.97;26.57
70437;BME280;57877;39.750;-104.894;2022-11-22T03:22:59;84094.54;;;3.07;26.41
70437;BME280;57877;39.750;-104.894;2022-11-22T03:25:24;84094.27;;;3.08;26.43
70437;BME280;57877;39.750;-104.894;2022-11-22T03:27:48;84093.15;;;2.92;26.56
70437;BME280;57877;39.750;-104.894;2022-11-22T03:30:14;84091.66;;;2.47;27.02
70437;BME280;57877;39.750;-104.894;2022-11-22T03:32:40;84090.46;;;2.79;26.63
70437;BME280;57877;39.750;-104.894;2022-11-22T03:35:05;84085.24;;;2.24;27.16
70437;BME280;57877;39.750;-104.894;2022-11-22T03:37:31;84078.93;;;2.46;26.96
70437;BME280;57877;39.750;-104.894;2022-11-22T03:39:57;84080.64;;;2.48;26.81
70437;BME280;57877;39.750;-104.894;2022-11-22T03:42:22;84081.79;;;2.35;26.93
70437;BME280;57877;39.750;-104.894;2022-11-22T03:44:47;84077.63;;;2.59;26.97
70437;BME280;57877;39.750;-104.894;2022-11-22T03:47:12;84080.77;;;1.93;27.40
70437;BME280;57877;39.750;-104.894;2022-11-22T03:49:37;84084.76;;;1.80;27.95
70437;BME280;57877;39.750;-104.894;2022-11-22T03:52:02;84087.46;;;1.95;28.20
70437;BME280;57877;39.750;-104.894;2022-11-22T03:54:27;84085.11;;;1.84;28.08
70437;BME280;57877;39.750;-104.894;2022-11-22T03:56:52;84086.16;;;1.93;28.41
70437;BME280;57877;39.750;-104.894;2022-11-22T03:59:17;84085.79;;;1.77;28.67
70437;BME280;57877;39.750;-104.894;2022-11-22T04:01:42;84088.15;;;1.73;28.78
70437;BME280;57877;39.750;-104.894;2022-11-22T04:04:07;84087.53;;;1.55;28.80
70437;BME280;57877;39.750;-104.894;2022-11-22T04:06:32;84086.35;;;0.97;29.72
70437;BME280;57877;39.750;-104.894;2022-11-22T04:08:57;84084.34;;;1.65;29.24
70437;BME280;57877;39.750;-104.894;2022-11-22T04:11:22;84087.79;;;1.80;29.09
70437;BME280;57877;39.750;-104.894;2022-11-22T04:13:47;84087.61;;;1.52;29.34
70437;BME280;57877;39.750;-104.894;2022-11-22T04:16:12;84085.12;;;1.90;28.97
70437;BME280;57877;39.750;-104.894;2022-11-22T04:18:37;84082.50;;;1.72;29.34
70437;BME280;57877;39.750;-104.894;2022-11-22T04:21:02;84083.07;;;1.93;29.15
70437;BME280;57877;39.750;-104.894;2022-11-22T04:23:27;84085.30;;;1.27;30.10
70437;BME280;57877;39.750;-104.894;2022-11-22T04:25:54;84085.55;;;1.51;29.91
70437;BME280;57877;39.750;-104.894;2022-11-22T04:28:20;84086.06;;;1.19;30.62
70437;BME280;57877;39.750;-104.894;2022-11-22T04:30:43;84082.58;;;1.17;30.39
70437;BME280;57877;39.750;-104.894;2022-11-22T04:33:08;84082.93;;;1.14;30.35
70437;BME280;57877;39.750;-104.894;2022-11-22T04:35:33;84083.27;;;1.66;30.03
70437;BME280;57877;39.750;-104.894;2022-11-22T04:37:58;84086.74;;;0.83;30.85
70437;BME280;57877;39.750;-104.894;2022-11-22T04:40:23;84082.75;;;1.19;30.73
70437;BME280;57877;39.750;-104.894;2022-11-22T04:42:48;84083.41;;;1.51;30.22
70437;BME280;57877;39.750;-104.894;2022-11-22T04:45:13;84082.34;;;0.89;30.87
70437;BME280;57877;39.750;-104.894;2022-11-22T04:47:38;84081.46;;;0.61;31.20
70437;BME280;57877;39.750;-104.894;2022-11-22T04:50:05;84084.06;;;1.32;30.77
70437;BME280;57877;39.750;-104.894;2022-11-22T04:52:28;84086.96;;;0.63;31.23
70437;BME280;57877;39.750;-104.894;2022-11-22T04:54:53;84086.10;;;0.70;31.32
70437;BME280;57877;39.750;-104.894;2022-11-22T04:57:19;84083.71;;;1.18;31.18
70437;BME280;57877;39.750;-104.894;2022-11-22T04:59:44;84087.75;;;1.28;30.61
70437;BME280;57877;39.750;-104.894;2022-11-22T05:02:10;84088.76;;;1.66;30.37
70437;BME280;57877;39.750;-104.894;2022-11-22T05:04:36;84091.18;;;1.08;30.45
70437;BME280;57877;39.750;-104.894;2022-11-22T05:07:02;84091.08;;;1.04;30.98
70437;BME280;57877;39.750;-104.894;2022-11-22T05:09:27;84090.73;;;1.42;30.54
70437;BME280;57877;39.750;-104.894;2022-11-22T05:11:51;84089.15;;;1.16;30.47
70437;BME280;57877;39.750;-104.894;2022-11-22T05:14:16;84092.92;;;0.69;30.82
70437;BME280;57877;39.750;-104.894;2022-11-22T05:16:41;84089.46;;;1.33;30.57
70437;BME280;57877;39.750;-104.894;2022-11-22T05:19:07;84087.96;;;1.00;30.78
70437;BME280;57877;39.750;-104.894;2022-11-22T05:21:33;84083.37;;;0.72;31.43
70437;BME280;57877;39.750;-104.894;2022-11-22T05:23:57;84078.65;;;0.47;31.90
70437;BME280;57877;39.750;-104.894;2022-11-22T05:26:23;84080.81;;;0.83;31.45
70437;BME280;57877;39.750;-104.894;2022-11-22T05:28:47;84083.40;;;-0.13;32.84
70437;BME280;57877;39.750;-104.894;2022-11-22T05:31:14;84080.37;;;0.11;32.32
70437;BME280;57877;39.750;-104.894;2022-11-22T05:33:40;84079.92;;;0.31;32.12
70437;BME280;57877;39.750;-104.894;2022-11-22T05:36:03;84073.80;;;0.52;31.83
70437;BME280;57877;39.750;-104.894;2022-11-22T05:38:27;84072.44;;;0.59;31.74
70437;BME280;57877;39.750;-104.894;2022-11-22T05:40:52;84072.25;;;0.44;31.81
70437;BME280;57877;39.750;-104.894;2022-11-22T05:43:18;84071.38;;;0.75;31.66
70437;BME280;57877;39.750;-104.894;2022-11-22T05:45:42;84070.90;;;0.89;32.32
70437;BME280;57877;39.750;-104.894;2022-11-22T05:48:07;84068.41;;;0.77;31.56
70437;BME280;57877;39.750;-104.894;2022-11-22T05:50:32;84067.21;;;0.69;31.38
70437;BME280;57877;39.750;-104.894;2022-11-22T05:53:00;84068.44;;;0.47;31.87
70437;BME280;57877;39.750;-104.894;2022-11-22T05:55:22;84071.41;;;0.87;31.46
70437;BME280;57877;39.750;-104.894;2022-11-22T05:57:47;84071.05;;;0.81;31.13
70437;BME280;57877;39.750;-104.894;2022-11-22T06:00:13;84068.39;;;0.70;30.97
70437;BME280;57877;39.750;-104.894;2022-11-22T06:02:37;84065.56;;;0.86;30.95
70437;BME280;57877;39.750;-104.894;2022-11-22T06:05:03;84064.32;;;0.69;30.95
70437;BME280;57877;39.750;-104.894;2022-11-22T06:07:27;84065.22;;;0.43;31.10
70437;BME280;57877;39.750;-104.894;2022-11-22T06:09:52;84064.47;;;0.50;30.96
70437;BME280;57877;39.750;-104.894;2022-11-22T06:12:18;84062.20;;;0.63;30.96
70437;BME280;57877;39.750;-104.894;2022-11-22T06:14:44;84055.53;;;0.24;31.30
70437;BME280;57877;39.750;-104.894;2022-11-22T06:17:08;84057.77;;;0.39;31.11
70437;BME280;57877;39.750;-104.894;2022-11-22T06:19:33;84063.23;;;0.52;31.87
70437;BME280;57877;39.750;-104.894;2022-11-22T06:21:58;84063.41;;;0.53;32.60
70437;BME280;57877;39.750;-104.894;2022-11-22T06:24:31;84063.05;;;0.15;32.29
70437;BME280;57877;39.750;-104.894;2022-11-22T06:26:48;84062.65;;;0.31;32.07
70437;BME280;57877;39.750;-104.894;2022-11-22T06:29:14;84062.34;;;0.52;31.86
70437;BME280;57877;39.750;-104.894;2022-11-22T06:31:40;84060.10;;;0.19;32.38
70437;BME280;57877;39.750;-104.894;2022-11-22T06:34:06;84058.23;;;0.45;32.00
70437;BME280;57877;39.750;-104.894;2022-11-22T06:36:33;84058.89;;;-0.01;31.62
70437;BME280;57877;39.750;-104.894;2022-11-22T06:38:57;84056.41;;;0.16;31.33
70437;BME280;57877;39.750;-104.894;2022-11-22T06:41:24;84055.83;;;-0.37;31.39
70437;BME280;57877;39.750;-104.894;2022-11-22T06:43:48;84056.87;;;0.20;30.83
70437;BME280;57877;39.750;-104.894;2022-11-22T06:46:13;84057.01;;;0.39;31.61
70437;BME280;57877;39.750;-104.894;2022-11-22T06:48:39;84060.86;;;0.48;31.97
70437;BME280;57877;39.750;-104.894;2022-11-22T06:51:04;84059.69;;;0.62;31.41
70437;BME280;57877;39.750;-104.894;2022-11-22T06:53:28;84058.71;;;0.66;31.48
70437;BME280;57877;39.750;-104.894;2022-11-22T06:55:59;84057.08;;;0.57;30.99
70437;BME280;57877;39.750;-104.894;2022-11-22T06:58:18;84052.36;;;0.64;30.69
70437;BME280;57877;39.750;-104.894;2022-11-22T07:00:43;84049.79;;;0.38;30.61
70437;BME280;57877;39.750;-104.894;2022-11-22T07:03:08;84050.83;;;0.50;30.40
70437;BME280;57877;39.750;-104.894;2022-11-22T07:05:33;84049.86;;;0.59;30.55
70437;BME280;57877;39.750;-104.894;2022-11-22T07:07:58;84050.56;;;0.56;30.20
70437;BME280;57877;39.750;-104.894;2022-11-22T07:10:23;84051.62;;;0.65;30.17
70437;BME280;57877;39.750;-104.894;2022-11-22T07:12:48;84048.07;;;0.76;31.05
70437;BME280;57877;39.750;-104.894;2022-11-22T07:15:14;84044.21;;;0.59;30.40
70437;BME280;57877;39.750;-104.894;2022-11-22T07:17:38;84043.45;;;0.37;30.60
70437;BME280;57877;39.750;-104.894;2022-11-22T07:20:04;84041.20;;;0.37;30.78
70437;BME280;57877;39.750;-104.894;2022-11-22T07:22:28;84038.67;;;0.15;30.56
70437;BME280;57877;39.750;-104.894;2022-11-22T07:24:53;84040.47;;;-0.06;31.49
70437;BME280;57877;39.750;-104.894;2022-11-22T07:27:19;84036.81;;;0.30;31.79
70437;BME280;57877;39.750;-104.894;2022-11-22T07:29:44;84039.11;;;0.01;31.86
70437;BME280;57877;39.750;-104.894;2022-11-22T07:32:09;84037.37;;;0.42;31.30
70437;BME280;57877;39.750;-104.894;2022-11-22T07:34:34;84035.68;;;0.36;30.46
70437;BME280;57877;39.750;-104.894;2022-11-22T07:36:59;84035.76;;;0.25;29.84
70437;BME280;57877;39.750;-104.894;2022-11-22T07:39:25;84033.91;;;0.57;31.37
70437;BME280;57877;39.750;-104.894;2022-11-22T07:41:49;84034.38;;;0.29;31.43
70437;BME280;57877;39.750;-104.894;2022-11-22T07:44:14;84034.89;;;0.23;31.40
70437;BME280;57877;39.750;-104.894;2022-11-22T07:46:39;84031.34;;;0.12;30.97
70437;BME280;57877;39.750;-104.894;2022-11-22T07:49:04;84033.74;;;0.20;30.00
70437;BME280;57877;39.750;-104.894;2022-11-22T07:51:30;84034.12;;;0.30;30.45
70437;BME280;57877;39.750;-104.894;2022-11-22T07:53:55;84037.13;;;0.34;30.44
70437;BME280;57877;39.750;-104.894;2022-11-22T07:56:19;84039.29;;;0.51;30.69
70437;BME280;57877;39.750;-104.894;2022-11-22T07:58:45;84038.90;;;0.76;30.66
70437;BME280;57877;39.750;-104.894;2022-11-22T08:01:11;84038.91;;;0.55;30.33
70437;BME280;57877;39.750;-104.894;2022-11-22T08:03:35;84040.16;;;0.57;30.05
70437;BME280;57877;39.750;-104.894;2022-11-22T08:06:00;84040.51;;;0.69;29.27
70437;BME280;57877;39.750;-104.894;2022-11-22T08:08:25;84040.33;;;0.51;30.99
70437;BME280;57877;39.750;-104.894;2022-11-22T08:10:50;84038.95;;;0.81;30.20
70437;BME280;57877;39.750;-104.894;2022-11-22T08:13:15;84035.61;;;0.24;29.72
70437;BME280;57877;39.750;-104.894;2022-11-22T08:15:40;84036.57;;;0.75;29.76
70437;BME280;57877;39.750;-104.894;2022-11-22T08:18:05;84032.43;;;0.64;29.64
70437;BME280;57877;39.750;-104.894;2022-11-22T08:20:30;84032.41;;;0.70;28.97
70437;BME280;57877;39.750;-104.894;2022-11-22T08:22:55;84031.56;;;0.56;29.08
70437;BME280;57877;39.750;-104.894;2022-11-22T08:25:20;84033.42;;;0.69;28.52
70437;BME280;57877;39.750;-104.894;2022-11-22T08:27:45;84033.20;;;0.70;28.52
70437;BME280;57877;39.750;-104.894;2022-11-22T08:30:11;84034.71;;;0.82;28.28
70437;BME280;57877;39.750;-104.894;2022-11-22T08:32:36;84036.40;;;0.86;27.89
70437;BME280;57877;39.750;-104.894;2022-11-22T08:35:01;84037.18;;;0.72;27.81
70437;BME280;57877;39.750;-104.894;2022-11-22T08:37:26;84037.40;;;0.36;27.89
70437;BME280;57877;39.750;-104.894;2022-11-22T08:39:51;84037.70;;;0.44;27.79
70437;BME280;57877;39.750;-104.894;2022-11-22T08:42:16;84037.65;;;0.19;27.81
70437;BME280;57877;39.750;-104.894;2022-11-22T08:44:41;84040.38;;;-0.25;28.20
70437;BME280;57877;39.750;-104.894;2022-11-22T08:47:06;84035.97;;;-0.66;28.37
70437;BME280;57877;39.750;-104.894;2022-11-22T08:49:31;84042.72;;;0.16;27.75
70437;BME280;57877;39.750;-104.894;2022-11-22T08:51:56;84038.36;;;0.73;27.13
70437;BME280;57877;39.750;-104.894;2022-11-22T08:54:21;84042.49;;;0.80;26.91
70437;BME280;57877;39.750;-104.894;2022-11-22T08:56:46;84050.13;;;0.47;27.94
70437;BME280;57877;39.750;-104.894;2022-11-22T08:59:12;84054.92;;;-0.22;29.56
70437;BME280;57877;39.750;-104.894;2022-11-22T09:01:37;84058.69;;;0.27;29.11
70437;BME280;57877;39.750;-104.894;2022-11-22T09:04:02;84061.04;;;0.03;29.52
70437;BME280;57877;39.750;-104.894;2022-11-22T09:06:27;84065.21;;;0.23;29.33
70437;BME280;57877;39.750;-104.894;2022-11-22T09:08:52;84075.57;;;0.46;29.05
70437;BME280;57877;39.750;-104.894;2022-11-22T09:11:19;84088.89;;;-0.25;30.35
70437;BME280;57877;39.750;-104.894;2022-11-22T09:13:42;84091.20;;;0.18;30.26
70437;BME280;57877;39.750;-104.894;2022-11-22T09:16:09;84092.84;;;0.02;30.54
70437;BME280;57877;39.750;-104.894;2022-11-22T09:18:32;84096.41;;;-0.21;30.52
70437;BME280;57877;39.750;-104.894;2022-11-22T09:20:58;84095.37;;;-0.04;29.96
70437;BME280;57877;39.750;-104.894;2022-11-22T09:25:48;84096.47;;;-0.44;30.17
70437;BME280;57877;39.750;-104.894;2022-11-22T09:28:13;84097.40;;;0.32;29.37
70437;BME280;57877;39.750;-104.894;2022-11-22T09:30:38;84096.93;;;0.44;29.26
70437;BME280;57877;39.750;-104.894;2022-11-22T09:33:03;84097.12;;;0.63;28.95
70437;BME280;57877;39.750;-104.894;2022-11-22T09:35:28;84099.52;;;0.72;29.04
70437;BME280;57877;39.750;-104.894;2022-11-22T09:37:53;84100.99;;;0.53;29.21
70437;BME280;57877;39.750;-104.894;2022-11-22T09:40:18;84102.21;;;0.38;29.51
70437;BME280;57877;39.750;-104.894;2022-11-22T09:42:53;84103.51;;;0.02;30.25
70437;BME280;57877;39.750;-104.894;2022-11-22T09:45:24;84104.39;;;0.40;29.91
70437;BME280;57877;39.750;-104.894;2022-11-22T09:47:40;84104.44;;;-0.03;29.96
70437;BME280;57877;39.750;-104.894;2022-11-22T09:50:05;84114.77;;;0.02;30.03
70437;BME280;57877;39.750;-104.894;2022-11-22T09:52:29;84114.84;;;0.57;29.15
70437;BME280;57877;39.750;-104.894;2022-11-22T09:54:52;84116.42;;;0.13;30.74
70437;BME280;57877;39.750;-104.894;2022-11-22T09:57:17;84118.12;;;0.29;30.91
70437;BME280;57877;39.750;-104.894;2022-11-22T09:59:43;84123.63;;;0.16;31.27
70437;BME280;57877;39.750;-104.894;2022-11-22T10:02:07;84121.57;;;0.04;30.80
70437;BME280;57877;39.750;-104.894;2022-11-22T10:04:34;84124.06;;;-0.05;30.48
70437;BME280;57877;39.750;-104.894;2022-11-22T10:06:57;84124.19;;;0.00;30.39
70437;BME280;57877;39.750;-104.894;2022-11-22T10:09:29;84128.40;;;0.27;29.86
70437;BME280;57877;39.750;-104.894;2022-11-22T10:11:46;84129.04;;;-0.13;29.76
70437;BME280;57877;39.750;-104.894;2022-11-22T10:14:18;84131.02;;;0.07;30.99
70437;BME280;57877;39.750;-104.894;2022-11-22T10:16:38;84133.43;;;-0.21;31.60
70437;BME280;57877;39.750;-104.894;2022-11-22T10:19:04;84135.72;;;-0.17;31.43
70437;BME280;57877;39.750;-104.894;2022-11-22T10:21:25;84137.05;;;0.02;30.99
70437;BME280;57877;39.750;-104.894;2022-11-22T10:23:50;84135.69;;;0.20;30.64
70437;BME280;57877;39.750;-104.894;2022-11-22T10:26:21;84131.43;;;-0.42;30.63
70437;BME280;57877;39.750;-104.894;2022-11-22T10:28:47;84127.19;;;0.07;30.22
70437;BME280;57877;39.750;-104.894;2022-11-22T10:31:15;84122.69;;;-0.66;29.76
70437;BME280;57877;39.750;-104.894;2022-11-22T10:33:36;84116.40;;;-0.41;29.11
70437;BME280;57877;39.750;-104.894;2022-11-22T10:36:05;84112.12;;;-0.67;28.87
70437;BME280;57877;39.750;-104.894;2022-11-22T10:40:52;84111.89;;;-0.73;29.68
70437;BME280;57877;39.750;-104.894;2022-11-22T10:45:41;84109.56;;;-0.32;28.28
70437;BME280;57877;39.750;-104.894;2022-11-22T10:48:08;84107.07;;;0.11;27.76
70437;BME280;57877;39.750;-104.894;2022-11-22T10:50:29;84107.89;;;0.26;27.32
70437;BME280;57877;39.750;-104.894;2022-11-22T10:52:58;84112.51;;;-0.18;27.28
70437;BME280;57877;39.750;-104.894;2022-11-22T10:55:25;84113.76;;;0.31;27.39
70437;BME280;57877;39.750;-104.894;2022-11-22T10:57:45;84112.53;;;0.76;26.95
70437;BME280;57877;39.750;-104.894;2022-11-22T11:00:15;84108.36;;;0.17;26.79
70437;BME280;57877;39.750;-104.894;2022-11-22T11:02:47;84107.44;;;0.52;26.95
70437;BME280;57877;39.750;-104.894;2022-11-22T11:04:58;84109.87;;;0.74;27.09
70437;BME280;57877;39.750;-104.894;2022-11-22T11:07:22;84109.64;;;0.26;26.62
70437;BME280;57877;39.750;-104.894;2022-11-22T11:09:48;84110.69;;;-0.14;26.73
70437;BME280;57877;39.750;-104.894;2022-11-22T11:12:14;84115.24;;;-0.15;26.51
70437;BME280;57877;39.750;-104.894;2022-11-22T11:14:38;84118.86;;;-0.16;26.25
70437;BME280;57877;39.750;-104.894;2022-11-22T11:17:02;84121.33;;;-0.02;26.42
70437;BME280;57877;39.750;-104.894;2022-11-22T11:19:29;84123.15;;;0.02;26.29
70437;BME280;57877;39.750;-104.894;2022-11-22T11:21:57;84124.12;;;0.04;26.33
70437;BME280;57877;39.750;-104.894;2022-11-22T11:24:16;84125.13;;;0.03;26.25
70437;BME280;57877;39.750;-104.894;2022-11-22T11:26:43;84123.79;;;-0.46;26.12
70437;BME280;57877;39.750;-104.894;2022-11-22T11:31:41;84127.43;;;-0.25;25.56
70437;BME280;57877;39.750;-104.894;2022-11-22T11:34:12;84129.82;;;-0.35;25.63
70437;BME280;57877;39.750;-104.894;2022-11-22T11:36:23;84130.90;;;-0.92;26.11
70437;BME280;57877;39.750;-104.894;2022-11-22T11:38:53;84129.76;;;-1.26;26.46
70437;BME280;57877;39.750;-104.894;2022-11-22T11:41:18;84127.02;;;-0.88;25.95
70437;BME280;57877;39.750;-104.894;2022-11-22T11:43:41;84128.83;;;-1.37;26.66
70437;BME280;57877;39.750;-104.894;2022-11-22T11:46:14;84128.95;;;-0.84;26.27
70437;BME280;57877;39.750;-104.894;2022-11-22T11:48:34;84131.93;;;-0.49;26.05
70437;BME280;57877;39.750;-104.894;2022-11-22T11:50:56;84133.79;;;-0.47;26.07
70437;BME280;57877;39.750;-104.894;2022-11-22T11:53:23;84132.52;;;-0.55;26.23
70437;BME280;57877;39.750;-104.894;2022-11-22T11:55:43;84128.98;;;-0.53;26.47
70437;BME280;57877;39.750;-104.894;2022-11-22T11:58:15;84126.82;;;-0.36;26.18
70437;BME280;57877;39.750;-104.894;2022-11-22T12:00:37;84127.72;;;-0.89;26.74
70437;BME280;57877;39.750;-104.894;2022-11-22T12:03:03;84131.84;;;-0.62;26.70
70437;BME280;57877;39.750;-104.894;2022-11-22T12:05:28;84132.75;;;-0.36;27.18
70437;BME280;57877;39.750;-104.894;2022-11-22T12:07:52;84135.32;;;-0.45;27.65
70437;BME280;57877;39.750;-104.894;2022-11-22T12:10:26;84135.89;;;-0.52;27.32
70437;BME280;57877;39.750;-104.894;2022-11-22T12:12:45;84137.96;;;-0.70;26.98
70437;BME280;57877;39.750;-104.894;2022-11-22T12:15:14;84143.65;;;-0.84;27.19
70437;BME280;57877;39.750;-104.894;2022-11-22T12:17:38;84152.78;;;-0.70;27.40
70437;BME280;57877;39.750;-104.894;2022-11-22T12:20:03;84152.62;;;-0.89;28.32
70437;BME280;57877;39.750;-104.894;2022-11-22T12:22:32;84148.42;;;-1.03;27.53
70437;BME280;57877;39.750;-104.894;2022-11-22T12:24:54;84150.51;;;-1.17;27.79
70437;BME280;57877;39.750;-104.894;2022-11-22T12:27:16;84152.09;;;-1.04;27.60
70437;BME280;57877;39.750;-104.894;2022-11-22T12:29:42;84155.17;;;-1.08;27.47
70437;BME280;57877;39.750;-104.894;2022-11-22T12:32:11;84156.91;;;-1.45;28.27
70437;BME280;57877;39.750;-104.894;2022-11-22T12:34:33;84158.04;;;-1.59;28.02
70437;BME280;57877;39.750;-104.894;2022-11-22T12:37:02;84154.24;;;-1.88;28.44
70437;BME280;57877;39.750;-104.894;2022-11-22T12:39:25;84151.67;;;-2.57;29.41
70437;BME280;57877;39.750;-104.894;2022-11-22T12:41:48;84150.35;;;-1.97;28.94
70437;BME280;57877;39.750;-104.894;2022-11-22T12:44:14;84154.70;;;-1.87;28.60